createdAt,value
2018-06-25T00:02:00.000Z,20.95
2018-06-25T00:11:59.000Z,20.94
2018-06-25T00:21:59.000Z,20.92
2018-06-25T00:31:59.000Z,20.9
2018-06-25T00:41:59.000Z,20.88
2018-06-25T00:51:59.000Z,20.86
2018-06-25T01:01:59.000Z,20.86
2018-06-25T01:11:59.000Z,20.85
2018-06-25T01:21:59.000Z,20.83
2018-06-25T01:31:59.000Z,20.82
2018-06-25T01:42:00.000Z,20.81
2018-06-25T01:52:00.000Z,20.8
2018-06-25T02:02:00.000Z,20.78
2018-06-25T02:12:00.000Z,20.76
2018-06-25T02:22:00.000Z,20.74
2018-06-25T02:32:00.000Z,20.74
2018-06-25T02:42:00.000Z,20.72
2018-06-25T02:52:00.000Z,20.71
2018-06-25T03:02:00.000Z,20.69
2018-06-25T03:12:00.000Z,20.68
2018-06-25T03:22:00.000Z,20.66
2018-06-25T03:32:00.000Z,20.65
2018-06-25T03:42:00.000Z,20.63
2018-06-25T03:52:00.000Z,20.63
2018-06-25T04:02:00.000Z,20.62
2018-06-25T04:12:00.000Z,20.62
2018-06-25T04:22:01.000Z,20.6
2018-06-25T04:32:00.000Z,20.61
2018-06-25T04:42:00.000Z,20.59
2018-06-25T04:52:00.000Z,20.6
2018-06-25T05:02:00.000Z,20.59
2018-06-25T05:12:00.000Z,20.62
2018-06-25T05:22:00.000Z,20.6
2018-06-25T05:32:00.000Z,20.59
2018-06-25T05:42:00.000Z,20.61
2018-06-25T05:52:00.000Z,20.61
2018-06-25T06:02:00.000Z,20.61
2018-06-25T06:12:00.000Z,20.62
2018-06-25T06:22:00.000Z,20.66
2018-06-25T06:32:00.000Z,20.71
2018-06-25T06:42:00.000Z,20.71
2018-06-25T06:52:00.000Z,20.7
2018-06-25T07:02:00.000Z,20.76
2018-06-25T07:12:00.000Z,20.84
2018-06-25T07:22:00.000Z,20.86
2018-06-25T07:32:00.000Z,20.97
2018-06-25T07:42:00.000Z,20.91
2018-06-25T07:52:00.000Z,21
2018-06-25T08:02:00.000Z,20.98
2018-06-25T08:12:00.000Z,21.12
2018-06-25T08:22:00.000Z,21.12
2018-06-25T08:32:00.000Z,21.25
2018-06-25T08:42:00.000Z,21.3
2018-06-25T08:52:00.000Z,21.31
2018-06-25T09:02:00.000Z,21.31
2018-06-25T09:12:00.000Z,21.36
2018-06-25T09:22:00.000Z,21.35
2018-06-25T09:32:00.000Z,21.56
2018-06-25T09:42:00.000Z,21.58
2018-06-25T09:52:00.000Z,21.66
2018-06-25T10:02:01.000Z,21.65
2018-06-25T10:12:01.000Z,21.72
2018-06-25T10:22:01.000Z,21.8
2018-06-25T10:32:01.000Z,21.7
2018-06-25T10:42:01.000Z,22.11
2018-06-25T10:52:01.000Z,21.87
2018-06-25T11:02:01.000Z,21.99
2018-06-25T11:12:01.000Z,22.11
2018-06-25T11:22:01.000Z,22.23
2018-06-25T11:32:01.000Z,22.18
2018-06-25T11:42:01.000Z,22.23
2018-06-25T11:52:01.000Z,22.37
2018-06-25T12:02:03.000Z,22.23
2018-06-25T12:12:01.000Z,22.7
2018-06-25T12:22:01.000Z,22.47
2018-06-25T12:32:01.000Z,22.55
2018-06-25T12:42:01.000Z,22.68
2018-06-25T12:52:01.000Z,22.86
2018-06-25T13:02:02.000Z,22.74
2018-06-25T13:12:01.000Z,22.95
2018-06-25T13:22:01.000Z,23.01
2018-06-25T13:32:01.000Z,23.06
2018-06-25T13:42:01.000Z,23.01
2018-06-25T13:52:01.000Z,22.93
2018-06-25T14:02:01.000Z,23.03
2018-06-25T14:12:01.000Z,22.87
2018-06-25T14:22:01.000Z,22.92
2018-06-25T14:32:01.000Z,23.03
2018-06-25T14:42:01.000Z,22.92
2018-06-25T14:52:01.000Z,22.95
2018-06-25T15:02:01.000Z,23.05
2018-06-25T15:12:01.000Z,22.99
2018-06-25T15:22:01.000Z,23.05
2018-06-25T15:32:01.000Z,23.02
2018-06-25T15:42:01.000Z,23.03
2018-06-25T15:52:01.000Z,23.02
2018-06-25T16:02:01.000Z,22.92
2018-06-25T16:12:01.000Z,23.03
2018-06-25T16:22:01.000Z,22.96
2018-06-25T16:32:01.000Z,23.01
2018-06-25T16:42:01.000Z,23.03
2018-06-25T16:52:01.000Z,23.03
2018-06-25T17:02:01.000Z,23.06
2018-06-25T17:12:02.000Z,23.01
2018-06-25T17:22:01.000Z,23
2018-06-25T17:32:01.000Z,22.98
2018-06-25T17:42:02.000Z,22.96
2018-06-25T17:52:01.000Z,22.97
2018-06-25T18:02:01.000Z,22.96
2018-06-25T18:12:02.000Z,22.92
2018-06-25T18:22:02.000Z,22.86
2018-06-25T18:32:02.000Z,22.86
2018-06-25T18:42:02.000Z,22.88
2018-06-25T18:52:02.000Z,22.87
2018-06-25T19:02:02.000Z,22.96
2018-06-25T19:12:02.000Z,22.96
2018-06-25T19:22:02.000Z,22.94
2018-06-25T19:32:02.000Z,22.92
2018-06-25T19:42:02.000Z,22.89
2018-06-25T19:52:02.000Z,22.86
2018-06-25T20:02:02.000Z,22.86
2018-06-25T20:12:06.000Z,22.82
2018-06-25T20:22:02.000Z,22.82
2018-06-25T20:32:02.000Z,22.78
2018-06-25T20:42:02.000Z,22.76
2018-06-25T20:52:02.000Z,22.7
2018-06-25T21:02:02.000Z,22.64
2018-06-25T21:12:02.000Z,22.56
2018-06-25T21:22:02.000Z,22.53
2018-06-25T21:32:02.000Z,22.48
2018-06-25T21:42:05.000Z,22.43
2018-06-25T21:52:02.000Z,22.38
2018-06-25T22:02:02.000Z,22.32
2018-06-25T22:12:02.000Z,22.27
2018-06-25T22:22:02.000Z,22.23
2018-06-25T22:32:02.000Z,22.17
2018-06-25T22:42:03.000Z,22.13
2018-06-25T22:52:02.000Z,22.07
2018-06-25T23:02:04.000Z,22.03
2018-06-25T23:12:02.000Z,22
2018-06-25T23:22:02.000Z,21.95
2018-06-25T23:32:02.000Z,21.91
2018-06-25T23:42:04.000Z,21.87
2018-06-25T23:52:02.000Z,21.84
